createdAt,value
2022-10-25T00:03:56.731Z,13.13
2022-10-25T00:08:59.596Z,13.13
2022-10-25T00:14:20.668Z,13.10
2022-10-25T00:19:23.670Z,13.04
2022-10-25T00:24:26.507Z,13.00
2022-10-25T00:29:29.387Z,12.96
2022-10-25T00:34:32.399Z,12.97
2022-10-25T00:39:35.200Z,12.97
2022-10-25T00:44:41.047Z,12.96
2022-10-25T00:49:44.321Z,12.98
2022-10-25T00:54:50.546Z,13.00
2022-10-25T00:59:53.899Z,13.01
2022-10-25T01:04:56.867Z,13.05
2022-10-25T01:09:59.734Z,13.09
2022-10-25T01:15:03.024Z,13.12
2022-10-25T01:20:45.859Z,13.16
2022-10-25T01:25:55.688Z,13.18
2022-10-25T01:31:32.970Z,13.23
2022-10-25T01:36:43.733Z,13.25
2022-10-25T01:42:00.431Z,13.32
2022-10-25T01:47:06.731Z,13.37
2022-10-25T01:52:09.548Z,13.37
2022-10-25T01:58:11.415Z,13.36
2022-10-25T02:03:22.747Z,13.39
2022-10-25T02:08:50.546Z,13.43
2022-10-25T02:14:15.539Z,13.45
2022-10-25T02:19:23.658Z,13.46
2022-10-25T02:24:28.414Z,13.42
2022-10-25T02:29:32.729Z,13.36
2022-10-25T02:34:35.463Z,13.28
2022-10-25T02:39:38.288Z,13.21
2022-10-25T02:44:58.905Z,13.13
2022-10-25T02:50:01.776Z,13.05
2022-10-25T02:55:04.884Z,12.98
2022-10-25T03:00:08.548Z,12.89
2022-10-25T03:05:11.355Z,12.82
2022-10-25T03:10:14.124Z,12.76
2022-10-25T03:15:16.894Z,12.80
2022-10-25T03:20:19.803Z,12.90
2022-10-25T03:25:22.526Z,13.00
2022-10-25T03:30:26.343Z,13.10
2022-10-25T03:35:29.158Z,13.18
2022-10-25T03:40:32.134Z,13.22
2022-10-25T03:45:34.845Z,13.27
2022-10-25T03:50:37.742Z,13.29
2022-10-25T03:55:40.566Z,13.31
2022-10-25T04:00:43.462Z,13.31
2022-10-25T04:05:46.294Z,13.29
2022-10-25T04:10:49.006Z,13.29
2022-10-25T04:15:51.754Z,13.28
2022-10-25T04:20:58.467Z,13.24
2022-10-25T04:26:01.251Z,13.24
2022-10-25T04:31:04.280Z,13.24
2022-10-25T04:36:07.338Z,13.25
2022-10-25T04:41:10.256Z,13.28
2022-10-25T04:46:13.628Z,13.27
2022-10-25T04:51:16.626Z,13.28
2022-10-25T04:56:19.386Z,13.32
2022-10-25T05:01:22.271Z,13.39
2022-10-25T05:06:26.852Z,13.47
2022-10-25T05:11:29.790Z,13.50
2022-10-25T05:16:35.131Z,13.53
2022-10-25T05:21:37.997Z,13.54
2022-10-25T05:26:40.705Z,13.56
2022-10-25T05:31:44.083Z,13.61
2022-10-25T05:36:47.010Z,13.64
2022-10-25T05:41:50.231Z,13.68
2022-10-25T05:46:53.247Z,13.70
2022-10-25T05:51:56.035Z,13.77
2022-10-25T05:56:58.878Z,13.84
2022-10-25T06:02:01.836Z,13.87
2022-10-25T06:07:04.990Z,13.88
2022-10-25T06:12:09.603Z,13.87
2022-10-25T06:17:13.776Z,13.82
2022-10-25T06:22:16.573Z,13.76
2022-10-25T06:27:19.372Z,13.75
2022-10-25T06:32:21.914Z,13.73
2022-10-25T06:37:24.900Z,13.73
2022-10-25T06:42:27.588Z,13.72
2022-10-25T06:47:30.345Z,13.73
2022-10-25T06:52:33.167Z,13.71
2022-10-25T06:57:35.905Z,13.72
2022-10-25T07:02:38.667Z,13.74
2022-10-25T07:07:41.484Z,13.77
2022-10-25T07:12:44.289Z,13.81
2022-10-25T07:17:47.363Z,13.84
2022-10-25T07:22:50.317Z,13.86
2022-10-25T07:27:53.226Z,13.88
2022-10-25T07:32:56.456Z,13.89
2022-10-25T07:37:59.315Z,13.90
2022-10-25T07:43:02.069Z,13.91
2022-10-25T07:48:05.305Z,13.93
2022-10-25T07:53:08.339Z,14.00
2022-10-25T07:58:12.122Z,14.07
2022-10-25T08:03:16.307Z,14.17
2022-10-25T08:08:20.959Z,14.30
2022-10-25T08:13:23.947Z,14.42
2022-10-25T08:18:26.885Z,14.50
2022-10-25T08:23:31.648Z,14.49
2022-10-25T08:28:34.676Z,14.46
2022-10-25T08:33:37.414Z,14.45
2022-10-25T08:38:40.173Z,14.48
2022-10-25T08:44:12.048Z,14.51
2022-10-25T08:49:44.200Z,14.52
2022-10-25T08:54:47.403Z,14.51
2022-10-25T08:59:55.285Z,14.53
2022-10-25T09:04:58.131Z,14.55
2022-10-25T09:10:00.859Z,14.56
2022-10-25T09:15:21.782Z,14.55
2022-10-25T09:20:33.001Z,14.54
2022-10-25T09:26:02.538Z,14.53
2022-10-25T09:31:08.281Z,14.54
2022-10-25T09:36:12.491Z,14.57
2022-10-25T09:41:24.842Z,14.64
2022-10-25T09:46:38.175Z,14.70
2022-10-25T09:51:57.566Z,14.77
2022-10-25T09:57:00.360Z,14.84
2022-10-25T10:02:03.732Z,14.89
2022-10-25T10:07:16.812Z,14.97
2022-10-25T10:12:51.570Z,15.01
2022-10-25T10:18:20.881Z,15.03
2022-10-25T10:23:24.454Z,14.97
2022-10-25T10:28:27.102Z,14.89
2022-10-25T10:33:32.392Z,14.85
2022-10-25T10:38:52.892Z,14.88
2022-10-25T10:44:14.508Z,14.92
2022-10-25T10:49:18.890Z,15.02
2022-10-25T10:54:25.467Z,15.31
2022-10-25T10:59:34.788Z,15.63
2022-10-25T11:04:55.217Z,15.87
2022-10-25T11:10:15.961Z,16.31
2022-10-25T11:15:18.750Z,16.72
2022-10-25T11:20:26.623Z,17.01
2022-10-25T11:25:38.589Z,17.22
2022-10-25T11:31:19.688Z,17.41
2022-10-25T11:36:48.943Z,17.53
2022-10-25T11:41:55.514Z,17.51
2022-10-25T11:47:32.351Z,17.49
2022-10-25T11:53:00.069Z,17.53
2022-10-25T11:58:30.358Z,17.56
2022-10-25T12:03:48.008Z,17.56
2022-10-25T12:09:09.518Z,17.60
2022-10-25T12:14:15.349Z,17.71
2022-10-25T12:19:24.580Z,17.73
2022-10-25T12:24:34.785Z,17.70
2022-10-25T12:29:41.439Z,17.66
2022-10-25T12:34:48.002Z,17.63
2022-10-25T12:39:52.337Z,17.60
2022-10-25T12:45:12.176Z,17.60
2022-10-25T12:50:50.636Z,17.59
2022-10-25T12:55:56.702Z,17.61
2022-10-25T13:01:21.317Z,17.66
2022-10-25T13:06:29.903Z,17.72
2022-10-25T13:11:42.166Z,17.72
2022-10-25T13:16:45.087Z,17.77
2022-10-25T13:21:53.888Z,17.80
2022-10-25T13:27:14.946Z,17.77
2022-10-25T13:32:20.325Z,17.81
2022-10-25T13:37:33.086Z,17.85
2022-10-25T13:42:37.707Z,17.87
2022-10-25T13:47:45.578Z,17.91
2022-10-25T13:52:56.015Z,17.94
2022-10-25T13:58:02.013Z,17.89
2022-10-25T14:03:13.091Z,17.86
2022-10-25T14:08:46.847Z,17.81
2022-10-25T14:13:58.294Z,17.77
2022-10-25T14:19:15.074Z,17.72
2022-10-25T14:24:19.561Z,17.65
2022-10-25T14:29:24.021Z,17.61
2022-10-25T14:34:28.547Z,17.54
2022-10-25T14:39:31.933Z,17.48
2022-10-25T14:44:46.731Z,17.38
2022-10-25T14:49:49.450Z,17.28
2022-10-25T14:54:59.573Z,17.18
2022-10-25T15:00:04.634Z,17.06
2022-10-25T15:05:17.363Z,16.96
2022-10-25T15:10:43.422Z,16.82
2022-10-25T15:15:47.986Z,16.72
2022-10-25T15:21:21.556Z,16.57
2022-10-25T15:26:34.623Z,16.33
2022-10-25T15:31:43.868Z,16.07
2022-10-25T15:36:46.932Z,15.83
2022-10-25T15:41:50.189Z,15.57
2022-10-25T15:46:52.845Z,15.39
2022-10-25T15:51:56.217Z,15.14
2022-10-25T15:56:58.997Z,14.90
2022-10-25T16:02:03.465Z,14.68
2022-10-25T16:07:06.186Z,14.43
2022-10-25T16:12:14.121Z,14.22
2022-10-25T16:17:16.890Z,14.01
2022-10-25T16:22:19.563Z,13.79
2022-10-25T16:27:22.362Z,13.58
2022-10-25T16:32:25.169Z,13.43
2022-10-25T16:37:27.956Z,13.37
2022-10-25T16:42:33.262Z,13.27
2022-10-25T16:47:39.680Z,13.25
2022-10-25T16:52:42.491Z,13.27
2022-10-25T16:57:45.781Z,13.28
2022-10-25T17:02:48.950Z,13.20
2022-10-25T17:07:52.203Z,13.07
2022-10-25T17:13:01.641Z,12.91
2022-10-25T17:18:04.783Z,12.73
2022-10-25T17:23:07.654Z,12.63
2022-10-25T17:28:10.426Z,12.63
2022-10-25T17:33:13.337Z,12.68
2022-10-25T17:38:16.150Z,12.77
2022-10-25T17:43:19.552Z,12.85
2022-10-25T17:48:22.447Z,12.95
2022-10-25T17:53:25.314Z,13.04
2022-10-25T17:58:28.083Z,13.14
2022-10-25T18:03:31.568Z,13.18
2022-10-25T18:08:36.416Z,13.15
2022-10-25T18:13:40.808Z,13.13
2022-10-25T18:18:43.684Z,13.10
2022-10-25T18:23:46.477Z,13.09
2022-10-25T18:28:50.170Z,13.09
2022-10-25T18:33:55.418Z,13.12
2022-10-25T18:38:58.272Z,13.19
2022-10-25T18:44:02.959Z,13.25
2022-10-25T18:49:05.781Z,13.31
2022-10-25T18:54:10.195Z,13.36
2022-10-25T18:59:13.070Z,13.40
2022-10-25T19:04:15.819Z,13.42
2022-10-25T19:09:18.551Z,13.39
2022-10-25T19:14:21.428Z,13.33
2022-10-25T19:19:24.047Z,13.21
2022-10-25T19:24:26.843Z,13.05
2022-10-25T19:29:29.543Z,12.96
2022-10-25T19:34:32.298Z,12.83
2022-10-25T19:39:36.052Z,12.74
2022-10-25T19:44:39.344Z,12.62
2022-10-25T19:49:42.353Z,12.47
2022-10-25T19:54:45.126Z,12.42
2022-10-25T19:59:47.913Z,12.42
2022-10-25T20:04:50.768Z,12.44
2022-10-25T20:09:53.708Z,12.39
2022-10-25T20:14:57.590Z,12.33
2022-10-25T20:20:00.390Z,12.20
2022-10-25T20:25:04.690Z,12.07
2022-10-25T20:30:07.837Z,11.89
2022-10-25T20:35:10.595Z,11.66
2022-10-25T20:40:13.406Z,11.55
2022-10-25T20:45:16.025Z,11.42
2022-10-25T20:50:18.759Z,11.26
2022-10-25T20:55:22.858Z,11.06
2022-10-25T21:00:25.625Z,10.87
2022-10-25T21:05:28.481Z,10.69
2022-10-25T21:10:31.273Z,10.60
2022-10-25T21:15:34.947Z,10.56
2022-10-25T21:20:37.720Z,10.51
2022-10-25T21:25:41.042Z,10.46
2022-10-25T21:30:46.005Z,10.38
2022-10-25T21:35:48.829Z,10.44
2022-10-25T21:40:51.692Z,10.81
2022-10-25T21:45:58.938Z,11.24
2022-10-25T21:51:01.887Z,11.59
2022-10-25T21:56:15.238Z,11.90
2022-10-25T22:01:21.669Z,12.16
2022-10-25T22:06:27.221Z,12.39
2022-10-25T22:11:32.678Z,12.55
2022-10-25T22:16:36.083Z,12.66
2022-10-25T22:21:39.929Z,12.57
2022-10-25T22:26:44.466Z,12.26
2022-10-25T22:31:47.246Z,11.87
2022-10-25T22:36:50.062Z,11.55
2022-10-25T22:41:53.921Z,11.24
2022-10-25T22:46:56.516Z,10.98
2022-10-25T22:51:59.538Z,10.72
2022-10-25T22:57:02.330Z,10.52
2022-10-25T23:02:05.091Z,10.38
2022-10-25T23:07:07.603Z,10.25
2022-10-25T23:12:10.324Z,10.11
2022-10-25T23:17:13.218Z,9.95
2022-10-25T23:22:16.063Z,9.85
2022-10-25T23:27:18.767Z,9.75
2022-10-25T23:32:21.536Z,9.70
2022-10-25T23:37:24.218Z,9.64
2022-10-25T23:42:26.978Z,9.57
2022-10-25T23:47:31.066Z,9.51
2022-10-25T23:52:34.036Z,9.46
2022-10-25T23:57:36.594Z,9.36
